ADDS METAR Data INFO
IDs: Format: Raw Decoded Include TAF

Data at: 0902 UTC 20 Oct 2017

KLCQ 200855Z AUTO 04004KT 10SM CLR 16/16 A3016 RMK AO2
KLCQ 200835Z AUTO 04004KT 10SM CLR 16/16 A3016 RMK AO2
KLCQ 200810Z AUTO 03005KT 10SM CLR 16/16 A3016 RMK AO2
KLCQ 200755Z AUTO 03005KT 10SM CLR 16/16 A3016 RMK AO2
KLCQ 200735Z AUTO 04004KT 10SM CLR 16/16 A3016 RMK AO2
KLCQ 200715Z AUTO 03004KT 10SM CLR 16/16 A3017 RMK AO2
KLCQ 200655Z AUTO 03003KT 10SM CLR 16/16 A3017 RMK AO2
KLCQ 200635Z AUTO 04003KT 10SM CLR 16/16 A3017 RMK AO2
KLCQ 200615Z AUTO 04003KT 10SM CLR 17/17 A3017 RMK AO2
KLCQ 200555Z AUTO 04004KT 10SM CLR 17/17 A3018 RMK AO2
KLCQ 200535Z AUTO 04004KT 10SM CLR 17/16 A3018 RMK AO2
KLCQ 200515Z AUTO 00000KT 10SM CLR 18/17 A3018 RMK AO2
KLCQ 200455Z AUTO 00000KT 10SM CLR 18/17 A3018 RMK AO2
KLCQ 200435Z AUTO 05003KT 10SM CLR 18/17 A3018 RMK AO2
KLCQ 200415Z AUTO 05003KT 10SM CLR 18/17 A3018 RMK AO2
KLCQ 200350Z AUTO 06004KT 10SM CLR 19/17 A3019 RMK AO2
KLCQ 200335Z AUTO 06004KT 10SM CLR 19/17 A3019 RMK AO2
KLCQ 200315Z AUTO 06005KT 10SM CLR 20/17 A3019 RMK AO2
KLCQ 200255Z AUTO 06004KT 10SM CLR 20/17 A3019 RMK AO2
KLCQ 200235Z AUTO 05004KT 10SM CLR 20/17 A3018 RMK AO2
KLCQ 200215Z AUTO 06003KT 10SM CLR 20/18 A3018 RMK AO2
KLCQ 200155Z AUTO 04004KT 10SM CLR 20/18 A3018 RMK AO2
KLCQ 200135Z AUTO 05005KT 10SM CLR 20/18 A3017 RMK AO2
KLCQ 200115Z AUTO 04004KT 10SM CLR 20/18 A3017 RMK AO2
KLCQ 200055Z AUTO 04005KT 10SM CLR 20/18 A3017 RMK AO2
KLCQ 200035Z AUTO 05004KT 10SM CLR 21/17 A3017 RMK AO2
KLCQ 200015Z AUTO 07003KT 10SM CLR 21/17 A3016 RMK AO2
KLCQ 192355Z AUTO 00000KT 10SM CLR 21/17 A3016 RMK AO2
KLCQ 192335Z AUTO 05003KT 10SM CLR 22/17 A3015 RMK AO2
KLCQ 192315Z AUTO 06003KT 10SM CLR 22/17 A3015 RMK AO2
KLCQ 192255Z AUTO 00000KT 10SM CLR 23/17 A3014 RMK AO2
KLCQ 192235Z AUTO 07005KT 10SM SCT037 SCT047 23/18 A3014 RMK AO2
KLCQ 192215Z AUTO 07007KT 10SM SCT039 SCT047 24/18 A3014 RMK AO2
KLCQ 192155Z AUTO 08005G14KT 10SM SCT043 SCT049 25/18 A3013 RMK AO2
KLCQ 192135Z AUTO 08008G14KT 10SM SCT037 SCT043 SCT049 26/18 A3013 RMK AO2
KLCQ 192115Z AUTO 06007G14KT 10SM SCT036 25/18 A3013 RMK AO2
KLCQ 192055Z AUTO 03009KT 10SM SCT036 26/18 A3012 RMK AO2
KLCQ 192035Z AUTO 03009KT 10SM SCT036 SCT046 26/19 A3012 RMK AO2
KLCQ 192015Z AUTO 07009KT 10SM SCT034 SCT043 26/19 A3013 RMK AO2
KLCQ 191955Z AUTO 04007G14KT 10SM SCT031 SCT037 SCT046 26/19 A3013 RMK AO2
KLCQ 191935Z AUTO 02009KT 10SM SCT031 BKN039 26/19 A3014 RMK AO2
KLCQ 191915Z AUTO 03007KT 10SM SCT032 SCT037 26/19 A3015 RMK AO2
KLCQ 191855Z AUTO 03011G14KT 10SM SCT030 SCT036 26/20 A3014 RMK AO2
KLCQ 191835Z AUTO 04010G17KT 10SM SCT028 SCT041 26/19 A3015 RMK AO2
KLCQ 191815Z AUTO 03010G14KT 10SM BKN028 25/19 A3016 RMK AO2
KLCQ 191755Z AUTO 02008G15KT 10SM BKN028 BKN035 OVC047 25/20 A3017 RMK AO2
KLCQ 191735Z AUTO 06007G16KT 10SM SCT028 BKN032 BKN038 25/20 A3018 RMK AO2
KLCQ 191715Z AUTO 05007G15KT 10SM BKN026 BKN032 25/20 A3019 RMK AO2
KLCQ 191655Z AUTO 01010KT 10SM BKN026 BKN032 25/20 A3019 RMK AO2
KLCQ 191635Z AUTO 06009KT 10SM BKN024 25/20 A3020 RMK AO2
KLCQ 191615Z AUTO 04009KT 10SM BKN022 25/20 A3020 RMK AO2
KLCQ 191555Z AUTO 02007KT 10SM SCT022 24/20 A3020 RMK AO2
KLCQ 191535Z AUTO 05006KT 10SM SCT070 23/20 A3021 RMK AO2
KLCQ 191515Z AUTO 04007KT 10SM BKN070 22/19 A3021 RMK AO2
KLCQ 191415Z AUTO 03006KT 10SM SCT011 SCT046 OVC060 19/18 A3020 RMK AO2
KLCQ 191355Z AUTO 03007KT 10SM SCT011 BKN048 OVC060 18/18 A3020 RMK AO2
KLCQ 191335Z AUTO 03008KT 10SM SCT009 BKN040 OVC046 17/17 A3019 RMK AO2
KLCQ 191315Z AUTO 04005KT 10SM SCT009 SCT036 OVC046 16/16 A3018 RMK AO2
KLCQ 191255Z AUTO 03007KT 10SM OVC048 16/16 A3017 RMK AO2
KLCQ 191235Z AUTO 03006KT 10SM OVC048 15/15 A3017 RMK AO2
KLCQ 191215Z AUTO 02006KT 10SM OVC050 15/15 A3017 RMK AO2
KLCQ 191155Z AUTO 03006KT 10SM SCT036 BKN050 15/15 A3017 RMK AO2
KLCQ 191135Z AUTO 04005KT 10SM BKN036 OVC043 15/15 A3017 RMK AO2
KLCQ 191115Z AUTO 03004KT 10SM OVC041 15/15 A3017 RMK AO2
KLCQ 191055Z AUTO 04006KT 10SM SCT035 OVC043 15/15 A3016 RMK AO2
KLCQ 191035Z AUTO 03007KT 10SM SCT004 BKN043 15/15 A3016 RMK AO2
KLCQ 191015Z AUTO 02009KT 10SM SCT004 15/15 A3015 RMK AO2
KLCQ 190955Z AUTO 02006KT 10SM CLR 15/15 A3015 RMK AO2
KLCQ 190935Z AUTO 03005KT 10SM CLR 15/15 A3015 RMK AO2
KLCQ 190915Z AUTO 03006KT 10SM SCT007 15/15 A3015 RMK AO2
KLCQ 190855Z AUTO 03006KT 10SM SCT009 15/15 A3015 RMK AO2
KLCQ 190835Z AUTO 02007KT 10SM SCT009 15/15 A3015 RMK AO2
KLCQ 190815Z AUTO 02007KT 10SM SCT009 16/16 A3015 RMK AO2
KLCQ 190755Z AUTO 02006KT 10SM CLR 16/16 A3015 RMK AO2
KLCQ 190735Z AUTO 02006KT 10SM CLR 16/16 A3015 RMK AO2
KLCQ 190715Z AUTO 02004KT 10SM CLR 16/16 A3016 RMK AO2
KLCQ 190655Z AUTO 02005KT 10SM CLR 16/16 A3016 RMK AO2
KLCQ 190635Z AUTO 02005KT 10SM CLR 16/16 A3017 RMK AO2
KLCQ 190615Z AUTO 03005KT 10SM CLR 16/16 A3017 RMK AO2
KLCQ 190555Z AUTO 03005KT 10SM CLR 16/16 A3017 RMK AO2
KLCQ 190535Z AUTO 02007KT 10SM SCT050 16/16 A3017 RMK AO2
KLCQ 190515Z AUTO 02006KT 10SM CLR 16/16 A3018 RMK AO2
KLCQ 190455Z AUTO 02004KT 10SM CLR 16/16 A3019 RMK AO2
KLCQ 190435Z AUTO 02005KT 10SM CLR 17/17 A3019 RMK AO2
KLCQ 190415Z AUTO 03004KT 10SM CLR 17/17 A3020 RMK AO2
KLCQ 190355Z AUTO 02004KT 10SM CLR 17/17 A3020 RMK AO2
KLCQ 190335Z AUTO 02004KT 10SM CLR 17/17 A3020 RMK AO2
KLCQ 190315Z AUTO 03005KT 10SM CLR 17/17 A3020 RMK AO2
KLCQ 190255Z AUTO 03007KT 10SM CLR 18/18 A3020 RMK AO2
KLCQ 190235Z AUTO 03006KT 10SM CLR 18/18 A3021 RMK AO2
KLCQ 190215Z AUTO 03006KT 10SM CLR 18/18 A3021 RMK AO2
KLCQ 190155Z AUTO 04006KT 10SM CLR 18/18 A3020 RMK AO2
KLCQ 190135Z AUTO 03006KT 10SM CLR 18/18 A3020 RMK AO2
KLCQ 190115Z AUTO 04008KT 10SM CLR 19/18 A3020 RMK AO2
KLCQ 190055Z AUTO 04006KT 10SM CLR 19/18 A3019 RMK AO2
KLCQ 190035Z AUTO 04005KT 10SM SCT019 19/18 A3019 RMK AO2
KLCQ 190015Z AUTO 04006KT 10SM SCT019 20/18 A3018 RMK AO2
KLCQ 182355Z AUTO 04005KT 10SM CLR 20/18 A3018 RMK AO2
KLCQ 182335Z AUTO 05005KT 10SM CLR 20/17 A3017 RMK AO2
KLCQ 182315Z AUTO 05005KT 10SM CLR 21/18 A3017 RMK AO2
KLCQ 182255Z AUTO 05007KT 10SM CLR 21/17 A3017 RMK AO2
KLCQ 182235Z AUTO 05008KT 10SM CLR 22/18 A3016 RMK AO2
KLCQ 182215Z AUTO 05005KT 10SM CLR 23/17 A3016 RMK AO2
KLCQ 182155Z AUTO 05008G16KT 10SM SCT030 23/18 A3016 RMK AO2
KLCQ 182135Z AUTO 06009G16KT 10SM SCT031 25/18 A3016 RMK AO2
KLCQ 182115Z AUTO 07006KT 10SM SCT033 SCT043 SCT050 23/18 A3015 RMK AO2